createdAt,value
2022-11-04T00:00:55.366Z,11.90
2022-11-04T00:03:22.458Z,12.00
2022-11-04T00:05:49.354Z,12.00
2022-11-04T00:08:25.238Z,12.00
2022-11-04T00:11:15.256Z,12.00
2022-11-04T00:13:42.587Z,11.90
2022-11-04T00:16:29.158Z,11.90
2022-11-04T00:18:56.289Z,11.90
2022-11-04T00:21:41.804Z,12.00
2022-11-04T00:24:30.933Z,12.00
2022-11-04T00:27:17.356Z,12.00
2022-11-04T00:29:44.787Z,12.00
2022-11-04T00:32:30.462Z,12.00
2022-11-04T00:34:57.727Z,12.00
2022-11-04T00:37:24.656Z,12.00
2022-11-04T00:39:52.028Z,12.00
2022-11-04T00:42:19.067Z,12.10
2022-11-04T00:44:46.045Z,12.10
2022-11-04T00:47:13.082Z,12.00
2022-11-04T00:49:40.384Z,12.10
2022-11-04T00:52:07.278Z,12.00
2022-11-04T00:54:34.419Z,12.10
2022-11-04T00:57:01.341Z,12.10
2022-11-04T00:59:28.839Z,12.10
2022-11-04T01:01:56.806Z,12.10
2022-11-04T01:04:24.119Z,12.10
2022-11-04T01:06:51.344Z,12.10
2022-11-04T01:09:18.714Z,12.10
2022-11-04T01:11:45.738Z,12.10
2022-11-04T01:14:13.087Z,12.10
2022-11-04T01:16:40.455Z,12.10
2022-11-04T01:19:07.624Z,12.10
2022-11-04T01:21:34.573Z,12.10
2022-11-04T01:24:01.732Z,12.10
2022-11-04T01:26:29.950Z,12.20
2022-11-04T01:28:58.294Z,12.20
2022-11-04T01:31:30.220Z,12.20
2022-11-04T01:33:58.572Z,12.20
2022-11-04T01:36:26.575Z,12.10
2022-11-04T01:38:56.739Z,12.10
2022-11-04T01:41:28.142Z,12.00
2022-11-04T01:44:04.104Z,12.00
2022-11-04T01:46:39.438Z,12.00
2022-11-04T01:49:31.616Z,12.00
2022-11-04T01:52:08.368Z,11.90
2022-11-04T01:54:36.991Z,11.90
2022-11-04T01:57:08.854Z,11.90
2022-11-04T01:59:39.430Z,11.90
2022-11-04T02:02:07.351Z,11.80
2022-11-04T02:04:36.373Z,11.80
2022-11-04T02:07:07.482Z,11.80
2022-11-04T02:09:36.677Z,11.70
2022-11-04T02:12:22.817Z,11.70
2022-11-04T02:14:51.414Z,11.70
2022-11-04T02:17:18.284Z,11.70
2022-11-04T02:20:16.188Z,11.70
2022-11-04T02:23:36.085Z,11.60
2022-11-04T02:26:24.695Z,11.60
2022-11-04T02:29:19.728Z,11.60
2022-11-04T02:32:11.397Z,11.60
2022-11-04T02:35:04.861Z,11.50
2022-11-04T02:37:57.880Z,11.50
2022-11-04T02:40:53.414Z,11.50
2022-11-04T02:43:49.833Z,11.50
2022-11-04T02:47:05.449Z,11.50
2022-11-04T02:49:49.033Z,11.50
2022-11-04T02:52:51.333Z,11.50
2022-11-04T02:55:34.755Z,11.40
2022-11-04T02:58:06.160Z,11.40
2022-11-04T03:00:34.573Z,11.30
2022-11-04T03:03:11.348Z,11.30
2022-11-04T03:05:41.012Z,11.30
2022-11-04T03:08:27.174Z,11.30
2022-11-04T03:11:03.347Z,11.30
2022-11-04T03:13:43.904Z,11.20
2022-11-04T03:16:17.611Z,11.20
2022-11-04T03:19:12.502Z,11.10
2022-11-04T03:21:50.360Z,11.10
2022-11-04T03:24:17.541Z,11.10
2022-11-04T03:27:21.436Z,11.10
2022-11-04T03:30:09.253Z,11.10
2022-11-04T03:33:07.633Z,11.10
2022-11-04T03:35:34.937Z,11.00
2022-11-04T03:38:02.427Z,11.00
2022-11-04T03:40:29.699Z,11.10
2022-11-04T03:43:10.240Z,11.10
2022-11-04T03:45:39.270Z,11.10
2022-11-04T03:48:06.425Z,11.10
2022-11-04T03:50:45.093Z,11.10
2022-11-04T03:53:15.510Z,11.10
2022-11-04T03:55:42.392Z,11.10
2022-11-04T03:58:46.551Z,11.10
2022-11-04T04:02:06.060Z,11.10
2022-11-04T04:04:36.648Z,11.10
2022-11-04T04:07:21.352Z,11.10
2022-11-04T04:10:35.760Z,11.10
2022-11-04T04:13:10.461Z,11.10
2022-11-04T04:15:57.991Z,11.10
2022-11-04T04:18:58.848Z,11.00
2022-11-04T04:22:17.422Z,11.00
2022-11-04T04:25:06.301Z,11.00
2022-11-04T04:27:35.334Z,10.90
2022-11-04T04:30:15.089Z,10.90
2022-11-04T04:32:45.607Z,10.90
2022-11-04T04:35:31.746Z,10.90
2022-11-04T04:38:21.664Z,10.90
2022-11-04T04:41:42.399Z,10.90
2022-11-04T04:44:43.428Z,10.90
2022-11-04T04:47:19.939Z,10.90
2022-11-04T04:49:58.763Z,10.90
2022-11-04T04:52:33.040Z,10.90
2022-11-04T04:55:00.429Z,10.90
2022-11-04T04:57:27.424Z,10.90
2022-11-04T04:59:54.553Z,10.90
2022-11-04T05:02:21.843Z,10.90
2022-11-04T05:04:49.139Z,10.90
2022-11-04T05:07:16.123Z,10.90
2022-11-04T05:09:43.107Z,10.80
2022-11-04T05:12:10.416Z,10.80
2022-11-04T05:14:37.428Z,10.80
2022-11-04T05:17:04.733Z,10.80
2022-11-04T05:19:31.980Z,10.70
2022-11-04T05:21:59.204Z,10.80
2022-11-04T05:24:26.373Z,10.70
2022-11-04T05:26:53.270Z,10.80
2022-11-04T05:29:20.459Z,10.80
2022-11-04T05:31:47.731Z,10.70
2022-11-04T05:34:15.410Z,10.70
2022-11-04T05:36:42.458Z,10.80
2022-11-04T05:39:13.584Z,10.70
2022-11-04T05:41:40.855Z,10.70
2022-11-04T05:44:09.762Z,10.70
2022-11-04T05:46:36.856Z,10.70
2022-11-04T05:49:04.813Z,10.70
2022-11-04T05:51:32.258Z,10.80
2022-11-04T05:53:59.429Z,10.80
2022-11-04T05:56:26.478Z,10.80
2022-11-04T05:58:54.076Z,10.70
2022-11-04T06:01:29.030Z,10.80
2022-11-04T06:03:58.120Z,10.80
2022-11-04T06:06:28.057Z,10.80
2022-11-04T06:08:56.932Z,10.80
2022-11-04T06:11:25.018Z,10.80
2022-11-04T06:13:54.858Z,10.80
2022-11-04T06:16:22.495Z,10.80
2022-11-04T06:18:49.920Z,10.80
2022-11-04T06:21:18.269Z,10.80
2022-11-04T06:23:45.553Z,10.70
2022-11-04T06:26:13.325Z,10.80
2022-11-04T06:28:40.610Z,10.80
2022-11-04T06:31:10.371Z,10.80
2022-11-04T06:33:37.698Z,10.70
2022-11-04T06:36:08.462Z,10.70
2022-11-04T06:38:37.904Z,10.70
2022-11-04T06:41:11.239Z,10.60
2022-11-04T06:43:39.052Z,10.60
2022-11-04T06:46:06.461Z,10.60
2022-11-04T06:48:33.521Z,10.60
2022-11-04T06:51:01.291Z,10.60
2022-11-04T06:53:29.320Z,10.50
2022-11-04T06:56:03.890Z,10.50
2022-11-04T06:58:30.991Z,10.50
2022-11-04T07:00:58.087Z,10.50
2022-11-04T07:03:25.233Z,10.50
2022-11-04T07:05:52.167Z,10.60
2022-11-04T07:08:19.257Z,10.60
2022-11-04T07:10:46.552Z,10.60
2022-11-04T07:13:14.200Z,10.60
2022-11-04T07:15:41.381Z,10.60
2022-11-04T07:18:08.597Z,10.70
2022-11-04T07:20:38.865Z,10.70
2022-11-04T07:23:06.033Z,10.70
2022-11-04T07:25:32.948Z,10.70
2022-11-04T07:28:02.361Z,10.70
2022-11-04T07:30:30.042Z,10.70
2022-11-04T07:32:57.003Z,10.70
2022-11-04T07:35:23.976Z,10.70
2022-11-04T07:37:51.309Z,10.60
2022-11-04T07:40:18.490Z,10.70
2022-11-04T07:42:45.410Z,10.60
2022-11-04T07:45:17.504Z,10.70
2022-11-04T07:47:44.635Z,10.60
2022-11-04T07:50:11.914Z,10.60
2022-11-04T07:52:39.126Z,10.50
2022-11-04T07:55:06.677Z,10.60
2022-11-04T07:57:33.751Z,10.60
2022-11-04T08:00:00.771Z,10.70
2022-11-04T08:02:33.950Z,10.80
2022-11-04T08:05:02.080Z,10.90
2022-11-04T08:07:29.067Z,10.90
2022-11-04T08:09:56.241Z,10.90
2022-11-04T08:12:24.260Z,10.90
2022-11-04T08:14:51.882Z,10.90
2022-11-04T08:17:18.880Z,10.80
2022-11-04T08:19:45.886Z,10.80
2022-11-04T08:22:13.113Z,10.90
2022-11-04T08:24:40.434Z,10.90
2022-11-04T08:27:08.139Z,10.90
2022-11-04T08:29:35.889Z,10.90
2022-11-04T08:32:03.363Z,10.90
2022-11-04T08:34:30.828Z,11.00
2022-11-04T08:36:58.804Z,11.10
2022-11-04T08:39:26.319Z,11.20
2022-11-04T08:41:53.992Z,11.30
2022-11-04T08:44:22.368Z,11.40
2022-11-04T08:46:49.296Z,11.40
2022-11-04T08:49:20.646Z,11.40
2022-11-04T08:51:56.389Z,11.40
2022-11-04T08:54:25.241Z,11.40
2022-11-04T08:56:52.469Z,11.50
2022-11-04T08:59:19.501Z,11.60
2022-11-04T09:01:46.458Z,11.90
2022-11-04T09:04:14.104Z,12.20
2022-11-04T09:06:44.859Z,12.30
2022-11-04T09:09:16.183Z,12.20
2022-11-04T09:11:44.955Z,12.20
2022-11-04T09:14:12.338Z,12.30
2022-11-04T09:16:41.525Z,12.40
2022-11-04T09:19:09.141Z,12.60
2022-11-04T09:21:36.430Z,12.60
2022-11-04T09:24:03.646Z,12.70
2022-11-04T09:26:31.376Z,12.80
2022-11-04T09:28:59.354Z,12.70
2022-11-04T09:31:29.478Z,12.60
2022-11-04T09:33:56.684Z,12.40
2022-11-04T09:36:24.457Z,12.30
2022-11-04T09:38:52.045Z,12.30
2022-11-04T09:41:48.358Z,12.20
2022-11-04T09:45:06.967Z,12.10
2022-11-04T09:47:28.620Z,12.10
2022-11-04T09:49:59.286Z,12.00
2022-11-04T09:52:44.572Z,12.00
2022-11-04T09:55:33.236Z,12.00
2022-11-04T09:58:00.769Z,11.90
2022-11-04T10:00:32.472Z,11.90
2022-11-04T10:03:48.158Z,11.90
2022-11-04T10:06:45.760Z,11.90
2022-11-04T10:09:49.746Z,11.90
2022-11-04T10:12:43.772Z,11.90
2022-11-04T10:15:38.263Z,11.80
2022-11-04T10:18:38.139Z,11.80
2022-11-04T10:21:47.588Z,11.80
2022-11-04T10:24:43.369Z,11.80
2022-11-04T10:27:19.978Z,11.90
2022-11-04T10:30:15.740Z,12.10
2022-11-04T10:33:19.410Z,12.30
2022-11-04T10:35:58.676Z,12.50
2022-11-04T10:38:51.784Z,12.50
2022-11-04T10:41:24.657Z,12.40
2022-11-04T10:43:57.009Z,12.30
2022-11-04T10:47:04.342Z,12.20
2022-11-04T10:50:26.578Z,12.30
2022-11-04T10:52:43.270Z,12.50
2022-11-04T10:55:33.448Z,12.80
2022-11-04T10:58:01.332Z,13.00
2022-11-04T11:00:39.853Z,13.20
2022-11-04T11:03:34.324Z,13.50
2022-11-04T11:06:14.669Z,13.70
2022-11-04T11:08:44.089Z,14.00
2022-11-04T11:11:12.630Z,14.00
2022-11-04T11:13:43.537Z,14.20
2022-11-04T11:16:24.945Z,14.20
2022-11-04T11:19:11.666Z,14.20
2022-11-04T11:21:49.440Z,14.10
2022-11-04T11:24:23.175Z,14.00
2022-11-04T11:26:57.044Z,13.70
2022-11-04T11:29:40.212Z,13.60
2022-11-04T11:32:27.868Z,13.40
2022-11-04T11:34:55.250Z,13.30
2022-11-04T11:37:25.778Z,13.10
2022-11-04T11:39:52.876Z,13.20
2022-11-04T11:42:20.481Z,13.40
2022-11-04T11:44:57.087Z,13.80
2022-11-04T11:47:29.795Z,14.10
2022-11-04T11:50:29.996Z,14.60
2022-11-04T11:53:18.381Z,14.80
2022-11-04T11:56:11.718Z,14.80
2022-11-04T12:02:53.258Z,15.00
2022-11-04T12:11:55.656Z,16.20
2022-11-04T12:14:58.038Z,16.20
2022-11-04T12:17:51.875Z,16.00
2022-11-04T12:20:56.110Z,16.10
2022-11-04T12:23:57.754Z,16.00
2022-11-04T12:26:48.629Z,16.40
2022-11-04T12:30:06.900Z,16.40
2022-11-04T12:33:11.017Z,16.40
2022-11-04T12:36:11.045Z,16.30
2022-11-04T12:39:02.719Z,16.30
2022-11-04T12:42:21.899Z,16.30
2022-11-04T12:45:25.001Z,16.10
2022-11-04T12:48:00.473Z,16.20
2022-11-04T12:50:40.920Z,16.60
2022-11-04T12:53:42.998Z,16.90
2022-11-04T12:56:18.424Z,17.40
2022-11-04T12:59:09.892Z,17.70
2022-11-04T13:01:47.032Z,17.70
2022-11-04T13:05:07.597Z,17.40
2022-11-04T13:07:43.082Z,16.90
2022-11-04T13:10:22.800Z,16.50
2022-11-04T13:12:52.652Z,16.40
2022-11-04T13:15:23.897Z,16.20
2022-11-04T13:17:58.994Z,16.10
2022-11-04T13:20:45.095Z,15.90
2022-11-04T13:23:31.008Z,15.90
2022-11-04T13:25:59.924Z,16.00
2022-11-04T13:28:27.094Z,15.90
2022-11-04T13:31:08.825Z,15.70
2022-11-04T13:34:00.500Z,15.50
2022-11-04T13:36:53.714Z,15.40
2022-11-04T13:39:34.075Z,15.40
2022-11-04T13:42:42.455Z,15.30
2022-11-04T13:45:16.430Z,15.20
2022-11-04T13:47:57.619Z,15.10
2022-11-04T13:50:37.697Z,15.10
2022-11-04T13:53:09.496Z,15.00
2022-11-04T13:55:49.902Z,14.80
2022-11-04T13:58:26.081Z,14.80
2022-11-04T14:01:31.788Z,14.60
2022-11-04T14:04:13.529Z,14.50
2022-11-04T14:07:04.030Z,14.40
2022-11-04T14:09:42.954Z,14.30
2022-11-04T14:12:18.847Z,14.30
2022-11-04T14:15:05.161Z,14.20
2022-11-04T14:17:35.112Z,14.30
2022-11-04T14:20:14.110Z,14.20
2022-11-04T14:22:43.924Z,14.40
2022-11-04T14:25:35.228Z,14.40
2022-11-04T14:28:18.858Z,14.50
2022-11-04T14:30:59.518Z,14.60
2022-11-04T14:33:53.749Z,14.50
2022-11-04T14:36:20.953Z,14.40
2022-11-04T14:39:08.271Z,14.30
2022-11-04T14:41:41.378Z,14.30
2022-11-04T14:44:38.383Z,14.20
2022-11-04T14:47:28.920Z,14.20
2022-11-04T14:49:59.019Z,14.10
2022-11-04T14:52:38.569Z,14.10
2022-11-04T14:55:13.692Z,14.00
2022-11-04T14:57:44.512Z,14.00
2022-11-04T15:00:23.298Z,13.90
2022-11-04T15:03:27.599Z,13.90
2022-11-04T15:06:03.246Z,13.90
2022-11-04T15:08:40.991Z,13.90
2022-11-04T15:11:16.619Z,13.90
2022-11-04T15:13:46.297Z,13.90
2022-11-04T15:16:26.896Z,13.80
2022-11-04T15:18:56.508Z,13.80
2022-11-04T15:21:24.324Z,13.80
2022-11-04T15:23:53.695Z,13.70
2022-11-04T15:26:30.432Z,13.70
2022-11-04T15:29:11.490Z,13.60
2022-11-04T15:31:52.908Z,13.60
2022-11-04T15:34:20.896Z,13.60
2022-11-04T15:36:49.860Z,13.60
2022-11-04T15:39:20.274Z,13.50
2022-11-04T15:42:08.956Z,13.50
2022-11-04T15:44:38.549Z,13.40
2022-11-04T15:47:17.620Z,13.30
2022-11-04T15:49:46.703Z,13.20
2022-11-04T15:52:24.861Z,13.10
2022-11-04T15:54:55.020Z,13.00
2022-11-04T15:57:29.636Z,13.00
2022-11-04T16:00:26.774Z,13.00
2022-11-04T16:02:57.531Z,13.10
2022-11-04T16:05:35.853Z,12.90
2022-11-04T16:08:21.734Z,12.90
2022-11-04T16:10:49.539Z,12.70
2022-11-04T16:13:16.403Z,12.60
2022-11-04T16:16:09.387Z,12.60
2022-11-04T16:18:39.393Z,12.50
2022-11-04T16:21:22.052Z,12.50
2022-11-04T16:23:54.451Z,12.50
2022-11-04T16:26:38.592Z,12.40
2022-11-04T16:29:22.128Z,12.40
2022-11-04T16:32:08.259Z,12.30
2022-11-04T16:34:35.741Z,12.30
2022-11-04T16:37:02.895Z,12.20
2022-11-04T16:39:30.807Z,12.10
2022-11-04T16:41:57.804Z,12.10
2022-11-04T16:44:26.064Z,12.00
2022-11-04T16:46:54.106Z,11.90
2022-11-04T16:49:23.593Z,11.80
2022-11-04T16:51:57.256Z,11.70
2022-11-04T16:54:25.358Z,11.70
2022-11-04T16:56:53.817Z,11.60
2022-11-04T16:59:21.161Z,11.60
2022-11-04T17:01:48.105Z,11.50
2022-11-04T17:04:15.525Z,11.40
2022-11-04T17:06:43.411Z,11.30
2022-11-04T17:09:24.128Z,11.30
2022-11-04T17:11:51.180Z,11.30
2022-11-04T17:14:18.158Z,11.30
2022-11-04T17:16:45.073Z,11.20
2022-11-04T17:19:16.565Z,11.10
2022-11-04T17:21:45.234Z,11.10
2022-11-04T17:24:12.599Z,11.00
2022-11-04T17:26:39.656Z,11.00
2022-11-04T17:29:06.670Z,11.00
2022-11-04T17:31:34.116Z,11.00
2022-11-04T17:34:01.263Z,11.00
2022-11-04T17:36:28.339Z,11.00
2022-11-04T17:38:55.275Z,11.00
2022-11-04T17:41:40.853Z,11.00
2022-11-04T17:44:07.992Z,11.00
2022-11-04T17:46:35.360Z,11.00
2022-11-04T17:49:23.580Z,11.00
2022-11-04T17:51:57.241Z,11.00
2022-11-04T17:54:27.215Z,11.00
2022-11-04T17:56:54.186Z,10.90
2022-11-04T17:59:21.189Z,10.90
2022-11-04T18:01:48.753Z,10.90
2022-11-04T18:04:22.280Z,10.80
2022-11-04T18:06:50.965Z,10.70
2022-11-04T18:09:19.075Z,10.70
2022-11-04T18:12:05.336Z,10.60
2022-11-04T18:14:33.167Z,10.50
2022-11-04T18:17:00.355Z,10.40
2022-11-04T18:19:28.301Z,10.30
2022-11-04T18:21:55.228Z,10.30
2022-11-04T18:24:22.926Z,10.30
2022-11-04T18:26:50.240Z,10.30
2022-11-04T18:29:17.582Z,10.30
2022-11-04T18:31:53.713Z,10.30
2022-11-04T18:34:26.490Z,10.30
2022-11-04T18:36:54.380Z,10.20
2022-11-04T18:39:41.723Z,10.20
2022-11-04T18:42:15.238Z,10.20
2022-11-04T18:44:52.717Z,10.10
2022-11-04T18:47:26.868Z,10.10
2022-11-04T18:50:08.920Z,10.10
2022-11-04T18:52:42.514Z,10.10
2022-11-04T18:55:24.644Z,10.10
2022-11-04T18:58:07.997Z,10.00
2022-11-04T19:00:37.551Z,10.00
2022-11-04T19:03:04.646Z,10.00
2022-11-04T19:05:31.759Z,10.00
2022-11-04T19:07:58.718Z,10.00
2022-11-04T19:10:25.823Z,10.00
2022-11-04T19:13:11.031Z,9.90
2022-11-04T19:15:38.234Z,9.90
2022-11-04T19:18:05.459Z,9.90
2022-11-04T19:20:33.358Z,9.90
2022-11-04T19:23:00.294Z,9.80
2022-11-04T19:25:27.453Z,9.80
2022-11-04T19:28:18.782Z,9.70
2022-11-04T19:30:41.841Z,9.60
2022-11-04T19:33:08.933Z,9.50
2022-11-04T19:35:38.104Z,9.40
2022-11-04T19:38:07.004Z,9.40
2022-11-04T19:40:34.632Z,9.30
2022-11-04T19:43:10.738Z,9.20
2022-11-04T19:45:43.331Z,9.10
2022-11-04T19:48:10.809Z,9.10
2022-11-04T19:50:49.173Z,9.10
2022-11-04T19:53:16.950Z,9.00
2022-11-04T19:55:54.796Z,9.00
2022-11-04T19:58:23.256Z,8.90
2022-11-04T20:00:51.051Z,8.90
2022-11-04T20:03:18.159Z,8.90
2022-11-04T20:05:45.457Z,8.90
2022-11-04T20:08:13.161Z,8.90
2022-11-04T20:10:43.002Z,8.90
2022-11-04T20:13:37.360Z,8.80
2022-11-04T20:16:21.011Z,8.70
2022-11-04T20:18:51.860Z,8.50
2022-11-04T20:21:20.858Z,8.50
2022-11-04T20:23:48.161Z,8.40
2022-11-04T20:26:20.785Z,8.40
2022-11-04T20:28:48.219Z,8.50
2022-11-04T20:31:19.976Z,8.50
2022-11-04T20:33:49.080Z,8.50
2022-11-04T20:36:20.478Z,8.50
2022-11-04T20:38:47.519Z,8.50
2022-11-04T20:41:19.702Z,8.50
2022-11-04T20:43:49.161Z,8.50
2022-11-04T20:46:20.671Z,8.50
2022-11-04T20:48:48.520Z,8.40
2022-11-04T20:51:18.759Z,8.40
2022-11-04T20:53:46.089Z,8.40
2022-11-04T20:56:17.329Z,8.40
2022-11-04T20:58:47.033Z,8.40
2022-11-04T21:01:26.195Z,8.30
2022-11-04T21:04:02.705Z,8.30
2022-11-04T21:06:30.234Z,8.30
2022-11-04T21:09:00.624Z,8.30
2022-11-04T21:11:31.841Z,8.30
2022-11-04T21:13:59.922Z,8.20
2022-11-04T21:16:27.327Z,8.20
2022-11-04T21:18:55.326Z,8.20
2022-11-04T21:21:22.979Z,8.20
2022-11-04T21:23:51.206Z,8.20
2022-11-04T21:26:24.657Z,8.10
2022-11-04T21:28:56.751Z,8.10
2022-11-04T21:31:25.414Z,8.00
2022-11-04T21:33:53.823Z,7.90
2022-11-04T21:36:22.365Z,7.90
2022-11-04T21:38:49.928Z,7.90
2022-11-04T21:41:23.067Z,7.80
2022-11-04T21:43:55.289Z,7.80
2022-11-04T21:46:22.922Z,7.80
2022-11-04T21:48:49.797Z,7.70
2022-11-04T21:51:21.894Z,7.70
2022-11-04T21:53:49.132Z,7.70
2022-11-04T21:56:28.388Z,7.60
2022-11-04T21:58:56.434Z,7.60
2022-11-04T22:01:28.628Z,7.50
2022-11-04T22:04:01.403Z,7.50
2022-11-04T22:06:34.803Z,7.50
2022-11-04T22:09:06.237Z,7.40
2022-11-04T22:11:39.846Z,7.40
2022-11-04T22:14:08.579Z,7.40
2022-11-04T22:16:39.089Z,7.40
2022-11-04T22:19:10.520Z,7.40
2022-11-04T22:21:41.118Z,7.40
2022-11-04T22:24:18.001Z,7.40
2022-11-04T22:26:44.961Z,7.40
2022-11-04T22:29:11.846Z,7.30
2022-11-04T22:31:42.796Z,7.30
2022-11-04T22:34:09.943Z,7.30
2022-11-04T22:36:37.844Z,7.30
2022-11-04T22:39:05.688Z,7.30
2022-11-04T22:41:35.536Z,7.30
2022-11-04T22:44:03.277Z,7.30
2022-11-04T22:46:32.751Z,7.20
2022-11-04T22:48:59.910Z,7.20
2022-11-04T22:51:27.800Z,7.20
2022-11-04T22:54:01.363Z,7.20
2022-11-04T22:56:31.802Z,7.20
2022-11-04T22:59:00.351Z,7.10
2022-11-04T23:01:27.450Z,7.10
2022-11-04T23:03:54.527Z,7.10
2022-11-04T23:06:21.558Z,7.10
2022-11-04T23:08:49.162Z,7.10
2022-11-04T23:11:41.859Z,7.00
2022-11-04T23:14:36.323Z,6.90
2022-11-04T23:17:43.113Z,7.00
2022-11-04T23:20:14.257Z,7.00
2022-11-04T23:23:00.818Z,7.00
2022-11-04T23:25:27.913Z,7.00
2022-11-04T23:28:14.553Z,7.00
2022-11-04T23:30:51.270Z,7.00
2022-11-04T23:33:18.637Z,7.00
2022-11-04T23:36:07.499Z,7.00
2022-11-04T23:38:35.560Z,7.00
2022-11-04T23:41:25.776Z,7.00
2022-11-04T23:43:52.850Z,7.00
2022-11-04T23:46:52.312Z,6.90
2022-11-04T23:49:38.024Z,6.90
2022-11-04T23:52:23.698Z,6.90
2022-11-04T23:55:09.754Z,7.00
2022-11-04T23:57:55.369Z,7.00
